sensor_id;sensor_type;location;lat;lon;timestamp;P1;durP1;ratioP1;P2;durP2;ratioP2
54384;SDS011;40284;52.878;5.998;2022-10-04T00:01:50;18.17;;;7.78;;
54384;SDS011;40284;52.878;5.998;2022-10-04T00:07:02;22.40;;;7.03;;
54384;SDS011;40284;52.878;5.998;2022-10-04T00:09:35;17.33;;;7.10;;
54384;SDS011;40284;52.878;5.998;2022-10-04T00:12:05;18.85;;;7.95;;
54384;SDS011;40284;52.878;5.998;2022-10-04T00:14:34;22.75;;;6.90;;
54384;SDS011;40284;52.878;5.998;2022-10-04T00:17:09;20.00;;;7.07;;
54384;SDS011;40284;52.878;5.998;2022-10-04T00:19:38;15.40;;;6.32;;
54384;SDS011;40284;52.878;5.998;2022-10-04T00:24:34;21.92;;;7.15;;
54384;SDS011;40284;52.878;5.998;2022-10-04T00:27:18;18.15;;;6.80;;
54384;SDS011;40284;52.878;5.998;2022-10-04T00:29:49;13.80;;;8.05;;
54384;SDS011;40284;52.878;5.998;2022-10-04T00:32:26;18.90;;;7.10;;
54384;SDS011;40284;52.878;5.998;2022-10-04T00:34:52;16.40;;;6.22;;
54384;SDS011;40284;52.878;5.998;2022-10-04T00:37:19;25.27;;;6.93;;
54384;SDS011;40284;52.878;5.998;2022-10-04T00:39:46;16.45;;;7.57;;
54384;SDS011;40284;52.878;5.998;2022-10-04T00:42:31;16.25;;;6.85;;
54384;SDS011;40284;52.878;5.998;2022-10-04T00:45:01;20.38;;;7.07;;
54384;SDS011;40284;52.878;5.998;2022-10-04T00:47:34;14.45;;;6.60;;
54384;SDS011;40284;52.878;5.998;2022-10-04T00:50:10;19.08;;;7.47;;
54384;SDS011;40284;52.878;5.998;2022-10-04T00:52:44;13.60;;;6.90;;
54384;SDS011;40284;52.878;5.998;2022-10-04T00:55:17;18.17;;;7.38;;
54384;SDS011;40284;52.878;5.998;2022-10-04T00:57:44;17.88;;;7.35;;
54384;SDS011;40284;52.878;5.998;2022-10-04T01:00:13;15.05;;;7.70;;
54384;SDS011;40284;52.878;5.998;2022-10-04T01:02:57;22.65;;;7.65;;
54384;SDS011;40284;52.878;5.998;2022-10-04T01:05:36;15.73;;;7.15;;
54384;SDS011;40284;52.878;5.998;2022-10-04T01:08:10;17.05;;;7.72;;
54384;SDS011;40284;52.878;5.998;2022-10-04T01:13:16;16.25;;;8.25;;
54384;SDS011;40284;52.878;5.998;2022-10-04T01:18:31;14.45;;;6.90;;
54384;SDS011;40284;52.878;5.998;2022-10-04T01:28:48;20.75;;;6.55;;
54384;SDS011;40284;52.878;5.998;2022-10-04T01:31:15;14.43;;;6.22;;
54384;SDS011;40284;52.878;5.998;2022-10-04T01:33:41;19.95;;;6.90;;
54384;SDS011;40284;52.878;5.998;2022-10-04T01:36:07;13.63;;;5.95;;
54384;SDS011;40284;52.878;5.998;2022-10-04T01:38:33;18.88;;;5.97;;
54384;SDS011;40284;52.878;5.998;2022-10-04T01:40:59;11.88;;;5.75;;
54384;SDS011;40284;52.878;5.998;2022-10-04T01:43:28;19.23;;;6.47;;
54384;SDS011;40284;52.878;5.998;2022-10-04T01:45:59;18.08;;;6.10;;
54384;SDS011;40284;52.878;5.998;2022-10-04T01:48:30;17.63;;;6.70;;
54384;SDS011;40284;52.878;5.998;2022-10-04T01:51:07;13.48;;;7.00;;
54384;SDS011;40284;52.878;5.998;2022-10-04T01:53:41;20.02;;;8.05;;
54384;SDS011;40284;52.878;5.998;2022-10-04T01:56:28;21.13;;;6.95;;
54384;SDS011;40284;52.878;5.998;2022-10-04T01:59:05;22.13;;;7.70;;
54384;SDS011;40284;52.878;5.998;2022-10-04T02:01:39;19.58;;;7.55;;
54384;SDS011;40284;52.878;5.998;2022-10-04T02:04:12;15.15;;;7.20;;
54384;SDS011;40284;52.878;5.998;2022-10-04T02:06:41;14.52;;;6.22;;
54384;SDS011;40284;52.878;5.998;2022-10-04T02:09:09;14.80;;;6.68;;
54384;SDS011;40284;52.878;5.998;2022-10-04T02:11:36;16.60;;;6.85;;
54384;SDS011;40284;52.878;5.998;2022-10-04T02:14:08;17.55;;;7.40;;
54384;SDS011;40284;52.878;5.998;2022-10-04T02:16:41;14.57;;;7.38;;
54384;SDS011;40284;52.878;5.998;2022-10-04T02:19:09;19.63;;;8.07;;
54384;SDS011;40284;52.878;5.998;2022-10-04T02:21:35;20.38;;;7.13;;
54384;SDS011;40284;52.878;5.998;2022-10-04T02:24:02;16.50;;;7.65;;
54384;SDS011;40284;52.878;5.998;2022-10-04T02:26:28;14.50;;;7.95;;
54384;SDS011;40284;52.878;5.998;2022-10-04T02:28:55;17.00;;;7.60;;
54384;SDS011;40284;52.878;5.998;2022-10-04T02:31:21;16.63;;;7.30;;
54384;SDS011;40284;52.878;5.998;2022-10-04T02:34:06;25.42;;;8.45;;
54384;SDS011;40284;52.878;5.998;2022-10-04T02:36:32;16.48;;;8.05;;
54384;SDS011;40284;52.878;5.998;2022-10-04T02:39:01;15.88;;;8.15;;
54384;SDS011;40284;52.878;5.998;2022-10-04T02:41:30;21.92;;;9.38;;
54384;SDS011;40284;52.878;5.998;2022-10-04T02:44:40;16.05;;;8.93;;
54384;SDS011;40284;52.878;5.998;2022-10-04T02:54:34;22.73;;;10.10;;
54384;SDS011;40284;52.878;5.998;2022-10-04T02:57:02;20.58;;;9.95;;
54384;SDS011;40284;52.878;5.998;2022-10-04T02:59:29;22.17;;;9.13;;
54384;SDS011;40284;52.878;5.998;2022-10-04T03:01:56;20.40;;;9.23;;
54384;SDS011;40284;52.878;5.998;2022-10-04T03:04:24;21.95;;;9.20;;
54384;SDS011;40284;52.878;5.998;2022-10-04T03:06:51;21.05;;;9.93;;
54384;SDS011;40284;52.878;5.998;2022-10-04T03:09:18;13.95;;;8.70;;
54384;SDS011;40284;52.878;5.998;2022-10-04T03:11:45;23.17;;;10.45;;
54384;SDS011;40284;52.878;5.998;2022-10-04T03:14:14;17.10;;;10.27;;
54384;SDS011;40284;52.878;5.998;2022-10-04T03:16:42;17.23;;;10.40;;
54384;SDS011;40284;52.878;5.998;2022-10-04T03:19:09;18.88;;;10.05;;
54384;SDS011;40284;52.878;5.998;2022-10-04T03:21:36;19.63;;;10.82;;
54384;SDS011;40284;52.878;5.998;2022-10-04T03:24:03;18.02;;;10.60;;
54384;SDS011;40284;52.878;5.998;2022-10-04T03:26:44;19.95;;;10.20;;
54384;SDS011;40284;52.878;5.998;2022-10-04T03:29:11;21.08;;;9.98;;
54384;SDS011;40284;52.878;5.998;2022-10-04T03:31:39;22.40;;;10.25;;
54384;SDS011;40284;52.878;5.998;2022-10-04T03:34:11;21.50;;;9.98;;
54384;SDS011;40284;52.878;5.998;2022-10-04T03:36:37;21.55;;;10.05;;
54384;SDS011;40284;52.878;5.998;2022-10-04T03:39:05;26.52;;;12.02;;
54384;SDS011;40284;52.878;5.998;2022-10-04T03:41:32;15.45;;;10.65;;
54384;SDS011;40284;52.878;5.998;2022-10-04T03:43:58;14.65;;;10.70;;
54384;SDS011;40284;52.878;5.998;2022-10-04T03:46:24;16.90;;;9.85;;
54384;SDS011;40284;52.878;5.998;2022-10-04T03:48:52;22.63;;;10.88;;
54384;SDS011;40284;52.878;5.998;2022-10-04T03:51:19;19.85;;;11.70;;
54384;SDS011;40284;52.878;5.998;2022-10-04T03:53:46;21.17;;;10.52;;
54384;SDS011;40284;52.878;5.998;2022-10-04T03:56:21;27.13;;;11.80;;
54384;SDS011;40284;52.878;5.998;2022-10-04T03:58:49;21.20;;;11.80;;
54384;SDS011;40284;52.878;5.998;2022-10-04T04:01:22;26.73;;;11.50;;
54384;SDS011;40284;52.878;5.998;2022-10-04T04:06:17;19.75;;;11.52;;
54384;SDS011;40284;52.878;5.998;2022-10-04T04:08:44;16.00;;;9.70;;
54384;SDS011;40284;52.878;5.998;2022-10-04T04:11:20;19.35;;;11.35;;
54384;SDS011;40284;52.878;5.998;2022-10-04T04:16:19;18.25;;;11.00;;
54384;SDS011;40284;52.878;5.998;2022-10-04T04:18:47;17.10;;;10.93;;
54384;SDS011;40284;52.878;5.998;2022-10-04T04:21:17;19.25;;;11.30;;
54384;SDS011;40284;52.878;5.998;2022-10-04T04:23:44;19.88;;;11.25;;
54384;SDS011;40284;52.878;5.998;2022-10-04T04:28:45;20.70;;;11.60;;
54384;SDS011;40284;52.878;5.998;2022-10-04T04:34:01;21.48;;;11.70;;
54384;SDS011;40284;52.878;5.998;2022-10-04T04:36:29;20.08;;;11.68;;
54384;SDS011;40284;52.878;5.998;2022-10-04T04:39:08;19.60;;;11.93;;
54384;SDS011;40284;52.878;5.998;2022-10-04T04:41:57;24.92;;;12.07;;
54384;SDS011;40284;52.878;5.998;2022-10-04T04:44:24;23.50;;;11.90;;
54384;SDS011;40284;52.878;5.998;2022-10-04T04:46:50;23.02;;;11.82;;
54384;SDS011;40284;52.878;5.998;2022-10-04T04:49:25;20.27;;;12.38;;
54384;SDS011;40284;52.878;5.998;2022-10-04T04:51:52;27.00;;;11.23;;
54384;SDS011;40284;52.878;5.998;2022-10-04T04:54:19;20.50;;;11.98;;
54384;SDS011;40284;52.878;5.998;2022-10-04T04:56:48;20.25;;;11.15;;
54384;SDS011;40284;52.878;5.998;2022-10-04T04:59:16;25.45;;;11.50;;
54384;SDS011;40284;52.878;5.998;2022-10-04T05:01:43;24.20;;;11.82;;
54384;SDS011;40284;52.878;5.998;2022-10-04T05:06:46;20.08;;;12.18;;
54384;SDS011;40284;52.878;5.998;2022-10-04T05:09:29;22.38;;;11.93;;
54384;SDS011;40284;52.878;5.998;2022-10-04T05:11:57;23.95;;;13.25;;
54384;SDS011;40284;52.878;5.998;2022-10-04T05:14:26;17.55;;;12.05;;
54384;SDS011;40284;52.878;5.998;2022-10-04T05:16:55;20.92;;;12.60;;
54384;SDS011;40284;52.878;5.998;2022-10-04T05:19:23;23.50;;;14.95;;
54384;SDS011;40284;52.878;5.998;2022-10-04T05:21:50;23.38;;;12.40;;
54384;SDS011;40284;52.878;5.998;2022-10-04T05:24:21;27.15;;;13.30;;
54384;SDS011;40284;52.878;5.998;2022-10-04T05:26:53;20.90;;;13.45;;
54384;SDS011;40284;52.878;5.998;2022-10-04T05:29:21;19.90;;;13.13;;
54384;SDS011;40284;52.878;5.998;2022-10-04T05:34:28;28.58;;;13.05;;
54384;SDS011;40284;52.878;5.998;2022-10-04T05:36:57;24.17;;;13.55;;
54384;SDS011;40284;52.878;5.998;2022-10-04T05:39:33;25.23;;;13.77;;
54384;SDS011;40284;52.878;5.998;2022-10-04T05:42:14;25.33;;;13.93;;
54384;SDS011;40284;52.878;5.998;2022-10-04T05:44:48;24.08;;;13.80;;
54384;SDS011;40284;52.878;5.998;2022-10-04T05:47:15;19.88;;;13.30;;
54384;SDS011;40284;52.878;5.998;2022-10-04T05:49:46;22.70;;;13.85;;
54384;SDS011;40284;52.878;5.998;2022-10-04T05:52:14;22.23;;;13.40;;
54384;SDS011;40284;52.878;5.998;2022-10-04T05:54:42;21.08;;;13.52;;
54384;SDS011;40284;52.878;5.998;2022-10-04T05:59:47;22.42;;;12.57;;
54384;SDS011;40284;52.878;5.998;2022-10-04T06:07:15;20.67;;;11.95;;
54384;SDS011;40284;52.878;5.998;2022-10-04T06:12:16;18.38;;;13.05;;
54384;SDS011;40284;52.878;5.998;2022-10-04T06:15:03;20.38;;;13.75;;
54384;SDS011;40284;52.878;5.998;2022-10-04T06:22:52;28.20;;;13.32;;
54384;SDS011;40284;52.878;5.998;2022-10-04T06:25:22;18.20;;;12.98;;
54384;SDS011;40284;52.878;5.998;2022-10-04T06:27:53;21.20;;;13.25;;
54384;SDS011;40284;52.878;5.998;2022-10-04T06:30:21;19.02;;;12.75;;
54384;SDS011;40284;52.878;5.998;2022-10-04T06:32:56;26.25;;;14.25;;
54384;SDS011;40284;52.878;5.998;2022-10-04T06:46:33;26.33;;;13.63;;
54384;SDS011;40284;52.878;5.998;2022-10-04T06:52:00;19.17;;;12.15;;
54384;SDS011;40284;52.878;5.998;2022-10-04T07:02:28;20.13;;;12.95;;
54384;SDS011;40284;52.878;5.998;2022-10-04T07:05:11;20.83;;;13.25;;
54384;SDS011;40284;52.878;5.998;2022-10-04T07:07:39;22.60;;;14.10;;
54384;SDS011;40284;52.878;5.998;2022-10-04T07:12:52;21.00;;;12.75;;
54384;SDS011;40284;52.878;5.998;2022-10-04T07:15:25;24.55;;;14.43;;
54384;SDS011;40284;52.878;5.998;2022-10-04T07:17:53;21.08;;;14.23;;
54384;SDS011;40284;52.878;5.998;2022-10-04T07:20:23;22.80;;;14.05;;
54384;SDS011;40284;52.878;5.998;2022-10-04T07:22:56;18.63;;;13.98;;
54384;SDS011;40284;52.878;5.998;2022-10-04T07:25:27;20.67;;;13.55;;
54384;SDS011;40284;52.878;5.998;2022-10-04T07:27:57;18.45;;;13.55;;
54384;SDS011;40284;52.878;5.998;2022-10-04T07:30:44;20.38;;;14.00;;
54384;SDS011;40284;52.878;5.998;2022-10-04T07:33:13;20.60;;;13.43;;
54384;SDS011;40284;52.878;5.998;2022-10-04T07:35:46;21.00;;;13.55;;
54384;SDS011;40284;52.878;5.998;2022-10-04T07:38:15;18.33;;;13.55;;
54384;SDS011;40284;52.878;5.998;2022-10-04T07:41:03;26.52;;;14.30;;
54384;SDS011;40284;52.878;5.998;2022-10-04T07:43:33;21.25;;;14.15;;
54384;SDS011;40284;52.878;5.998;2022-10-04T07:46:16;21.50;;;13.90;;
54384;SDS011;40284;52.878;5.998;2022-10-04T07:48:44;20.17;;;13.15;;
54384;SDS011;40284;52.878;5.998;2022-10-04T07:54:03;20.38;;;13.25;;
54384;SDS011;40284;52.878;5.998;2022-10-04T07:56:40;18.90;;;12.88;;
54384;SDS011;40284;52.878;5.998;2022-10-04T07:59:21;27.75;;;13.65;;
54384;SDS011;40284;52.878;5.998;2022-10-04T08:06:57;21.10;;;13.10;;
54384;SDS011;40284;52.878;5.998;2022-10-04T08:12:01;18.25;;;12.80;;
54384;SDS011;40284;52.878;5.998;2022-10-04T08:14:33;24.45;;;12.35;;
54384;SDS011;40284;52.878;5.998;2022-10-04T08:19:43;21.20;;;10.52;;
54384;SDS011;40284;52.878;5.998;2022-10-04T08:25:03;17.67;;;11.13;;
54384;SDS011;40284;52.878;5.998;2022-10-04T08:30:11;18.50;;;11.30;;
54384;SDS011;40284;52.878;5.998;2022-10-04T08:35:42;14.07;;;10.07;;
54384;SDS011;40284;52.878;5.998;2022-10-04T08:38:21;18.35;;;11.20;;
54384;SDS011;40284;52.878;5.998;2022-10-04T08:48:52;16.67;;;10.18;;
54384;SDS011;40284;52.878;5.998;2022-10-04T09:01:52;17.90;;;10.13;;
54384;SDS011;40284;52.878;5.998;2022-10-04T09:09:51;17.98;;;9.48;;
54384;SDS011;40284;52.878;5.998;2022-10-04T09:28:55;20.73;;;11.02;;
54384;SDS011;40284;52.878;5.998;2022-10-04T09:41:41;15.48;;;10.10;;
54384;SDS011;40284;52.878;5.998;2022-10-04T09:47:01;21.45;;;11.27;;
54384;SDS011;40284;52.878;5.998;2022-10-04T10:00:19;14.18;;;9.15;;
54384;SDS011;40284;52.878;5.998;2022-10-04T10:03:14;15.25;;;9.38;;
54384;SDS011;40284;52.878;5.998;2022-10-04T10:05:48;14.35;;;8.90;;
54384;SDS011;40284;52.878;5.998;2022-10-04T10:08:28;16.08;;;9.98;;
54384;SDS011;40284;52.878;5.998;2022-10-04T10:19:02;16.08;;;8.98;;
54384;SDS011;40284;52.878;5.998;2022-10-04T10:37:09;14.57;;;9.65;;
54384;SDS011;40284;52.878;5.998;2022-10-04T10:49:42;16.95;;;9.45;;
54384;SDS011;40284;52.878;5.998;2022-10-04T11:12:41;17.10;;;9.35;;
54384;SDS011;40284;52.878;5.998;2022-10-04T11:28:50;17.05;;;8.23;;
54384;SDS011;40284;52.878;5.998;2022-10-04T11:34:16;13.02;;;7.50;;
54384;SDS011;40284;52.878;5.998;2022-10-04T11:49:59;14.70;;;8.38;;
54384;SDS011;40284;52.878;5.998;2022-10-04T12:03:53;14.10;;;9.10;;
54384;SDS011;40284;52.878;5.998;2022-10-04T12:11:46;13.85;;;8.73;;
54384;SDS011;40284;52.878;5.998;2022-10-04T12:14:42;14.02;;;8.40;;
54384;SDS011;40284;52.878;5.998;2022-10-04T12:17:33;14.65;;;8.43;;
54384;SDS011;40284;52.878;5.998;2022-10-04T12:30:21;15.02;;;8.52;;
54384;SDS011;40284;52.878;5.998;2022-10-04T12:32:56;11.75;;;8.00;;
54384;SDS011;40284;52.878;5.998;2022-10-04T12:51:46;12.48;;;7.20;;
54384;SDS011;40284;52.878;5.998;2022-10-04T12:54:01;12.88;;;7.28;;
54384;SDS011;40284;52.878;5.998;2022-10-04T13:09:34;12.32;;;6.82;;
54384;SDS011;40284;52.878;5.998;2022-10-04T13:19:50;11.18;;;5.90;;
54384;SDS011;40284;52.878;5.998;2022-10-04T13:22:40;13.35;;;7.38;;
54384;SDS011;40284;52.878;5.998;2022-10-04T13:28:22;11.25;;;5.85;;
54384;SDS011;40284;52.878;5.998;2022-10-04T13:30:52;12.70;;;6.80;;
54384;SDS011;40284;52.878;5.998;2022-10-04T13:36:06;8.70;;;5.80;;
54384;SDS011;40284;52.878;5.998;2022-10-04T13:38:37;12.98;;;6.68;;
54384;SDS011;40284;52.878;5.998;2022-10-04T13:54:42;10.93;;;6.25;;
54384;SDS011;40284;52.878;5.998;2022-10-04T13:57:36;9.90;;;5.97;;
54384;SDS011;40284;52.878;5.998;2022-10-04T14:00:05;12.32;;;5.50;;
54384;SDS011;40284;52.878;5.998;2022-10-04T14:05:40;9.77;;;6.13;;
54384;SDS011;40284;52.878;5.998;2022-10-04T14:08:35;10.00;;;5.70;;
54384;SDS011;40284;52.878;5.998;2022-10-04T14:11:27;10.63;;;6.03;;
54384;SDS011;40284;52.878;5.998;2022-10-04T14:14:02;9.75;;;6.00;;
54384;SDS011;40284;52.878;5.998;2022-10-04T14:50:45;7.50;;;4.10;;
54384;SDS011;40284;52.878;5.998;2022-10-04T14:53:19;9.52;;;4.93;;
54384;SDS011;40284;52.878;5.998;2022-10-04T15:13:59;10.18;;;4.70;;
54384;SDS011;40284;52.878;5.998;2022-10-04T15:16:38;9.57;;;5.20;;
54384;SDS011;40284;52.878;5.998;2022-10-04T15:42:33;11.35;;;5.55;;
54384;SDS011;40284;52.878;5.998;2022-10-04T15:52:39;9.23;;;4.68;;
54384;SDS011;40284;52.878;5.998;2022-10-04T16:00:27;10.00;;;4.70;;
54384;SDS011;40284;52.878;5.998;2022-10-04T16:11:58;8.50;;;4.57;;
54384;SDS011;40284;52.878;5.998;2022-10-04T16:14:31;8.05;;;4.20;;
54384;SDS011;40284;52.878;5.998;2022-10-04T16:19:47;11.90;;;5.32;;
54384;SDS011;40284;52.878;5.998;2022-10-04T16:22:26;12.57;;;4.50;;
54384;SDS011;40284;52.878;5.998;2022-10-04T16:25:28;9.02;;;4.70;;
54384;SDS011;40284;52.878;5.998;2022-10-04T16:27:55;6.80;;;4.63;;
54384;SDS011;40284;52.878;5.998;2022-10-04T16:35:28;10.23;;;5.30;;
54384;SDS011;40284;52.878;5.998;2022-10-04T16:38:12;9.80;;;5.03;;
54384;SDS011;40284;52.878;5.998;2022-10-04T16:45:47;11.65;;;5.35;;
54384;SDS011;40284;52.878;5.998;2022-10-04T16:58:48;9.50;;;4.90;;
54384;SDS011;40284;52.878;5.998;2022-10-04T17:16:54;9.07;;;5.32;;
54384;SDS011;40284;52.878;5.998;2022-10-04T17:19:45;7.55;;;5.50;;
54384;SDS011;40284;52.878;5.998;2022-10-04T17:25:01;9.40;;;6.50;;
54384;SDS011;40284;52.878;5.998;2022-10-04T17:30:15;10.35;;;5.93;;
54384;SDS011;40284;52.878;5.998;2022-10-04T17:37:56;15.43;;;6.30;;
54384;SDS011;40284;52.878;5.998;2022-10-04T17:51:15;14.85;;;6.80;;
54384;SDS011;40284;52.878;5.998;2022-10-04T17:54:44;10.40;;;6.13;;
54384;SDS011;40284;52.878;5.998;2022-10-04T17:57:18;13.67;;;6.73;;
54384;SDS011;40284;52.878;5.998;2022-10-04T18:02:21;12.48;;;6.57;;
54384;SDS011;40284;52.878;5.998;2022-10-04T18:04:50;12.70;;;6.47;;
54384;SDS011;40284;52.878;5.998;2022-10-04T18:09:51;10.07;;;6.53;;
54384;SDS011;40284;52.878;5.998;2022-10-04T18:19:58;12.88;;;6.32;;
54384;SDS011;40284;52.878;5.998;2022-10-04T18:22:25;14.25;;;6.75;;
54384;SDS011;40284;52.878;5.998;2022-10-04T18:27:48;14.63;;;6.07;;
54384;SDS011;40284;52.878;5.998;2022-10-04T18:30:16;13.88;;;6.57;;
54384;SDS011;40284;52.878;5.998;2022-10-04T18:32:46;11.50;;;6.55;;
54384;SDS011;40284;52.878;5.998;2022-10-04T18:35:18;11.60;;;6.22;;
54384;SDS011;40284;52.878;5.998;2022-10-04T18:37:46;13.02;;;7.30;;
54384;SDS011;40284;52.878;5.998;2022-10-04T18:42:53;13.23;;;7.40;;
54384;SDS011;40284;52.878;5.998;2022-10-04T18:45:32;13.80;;;6.28;;
54384;SDS011;40284;52.878;5.998;2022-10-04T18:50:30;11.77;;;7.50;;
54384;SDS011;40284;52.878;5.998;2022-10-04T18:53:10;10.05;;;6.97;;
54384;SDS011;40284;52.878;5.998;2022-10-04T18:58:31;13.40;;;7.30;;
54384;SDS011;40284;52.878;5.998;2022-10-04T19:07:06;12.75;;;7.93;;
54384;SDS011;40284;52.878;5.998;2022-10-04T19:09:55;11.70;;;7.50;;
54384;SDS011;40284;52.878;5.998;2022-10-04T19:19:53;13.85;;;7.20;;
54384;SDS011;40284;52.878;5.998;2022-10-04T19:27:40;12.60;;;7.95;;
54384;SDS011;40284;52.878;5.998;2022-10-04T19:30:16;16.60;;;7.47;;
54384;SDS011;40284;52.878;5.998;2022-10-04T19:35:35;12.98;;;7.68;;
54384;SDS011;40284;52.878;5.998;2022-10-04T19:40:42;10.98;;;8.02;;
54384;SDS011;40284;52.878;5.998;2022-10-04T19:43:13;12.65;;;7.88;;
54384;SDS011;40284;52.878;5.998;2022-10-04T19:48:31;14.63;;;8.40;;
54384;SDS011;40284;52.878;5.998;2022-10-04T19:51:01;14.50;;;8.95;;
54384;SDS011;40284;52.878;5.998;2022-10-04T19:56:02;17.27;;;8.07;;
54384;SDS011;40284;52.878;5.998;2022-10-04T20:00:56;11.23;;;7.50;;
54384;SDS011;40284;52.878;5.998;2022-10-04T20:03:22;14.95;;;8.13;;
54384;SDS011;40284;52.878;5.998;2022-10-04T20:05:52;16.67;;;8.90;;
54384;SDS011;40284;52.878;5.998;2022-10-04T20:11:27;12.43;;;8.65;;
54384;SDS011;40284;52.878;5.998;2022-10-04T20:19:20;11.32;;;7.88;;
54384;SDS011;40284;52.878;5.998;2022-10-04T20:30:18;13.13;;;9.32;;
54384;SDS011;40284;52.878;5.998;2022-10-04T20:34:54;14.05;;;8.50;;
54384;SDS011;40284;52.878;5.998;2022-10-04T20:37:21;10.40;;;9.10;;
54384;SDS011;40284;52.878;5.998;2022-10-04T20:40:06;16.05;;;8.90;;
54384;SDS011;40284;52.878;5.998;2022-10-04T20:42:33;17.40;;;8.93;;
54384;SDS011;40284;52.878;5.998;2022-10-04T20:47:40;13.88;;;8.95;;
54384;SDS011;40284;52.878;5.998;2022-10-04T20:52:36;12.35;;;9.02;;
54384;SDS011;40284;52.878;5.998;2022-10-04T20:55:25;13.73;;;9.05;;
54384;SDS011;40284;52.878;5.998;2022-10-04T20:57:52;14.90;;;9.43;;
54384;SDS011;40284;52.878;5.998;2022-10-04T21:00:20;13.38;;;8.82;;
54384;SDS011;40284;52.878;5.998;2022-10-04T21:02:46;15.38;;;9.02;;
54384;SDS011;40284;52.878;5.998;2022-10-04T21:05:13;14.38;;;8.65;;
54384;SDS011;40284;52.878;5.998;2022-10-04T21:07:39;13.00;;;8.57;;
54384;SDS011;40284;52.878;5.998;2022-10-04T21:10:13;17.98;;;8.73;;
54384;SDS011;40284;52.878;5.998;2022-10-04T21:12:40;14.07;;;8.63;;
54384;SDS011;40284;52.878;5.998;2022-10-04T21:17:38;14.00;;;8.63;;
54384;SDS011;40284;52.878;5.998;2022-10-04T21:20:05;13.63;;;9.32;;
54384;SDS011;40284;52.878;5.998;2022-10-04T21:22:38;18.35;;;9.63;;
54384;SDS011;40284;52.878;5.998;2022-10-04T21:25:05;19.02;;;9.65;;
54384;SDS011;40284;52.878;5.998;2022-10-04T21:27:51;17.05;;;9.07;;
54384;SDS011;40284;52.878;5.998;2022-10-04T21:30:17;14.68;;;8.70;;
54384;SDS011;40284;52.878;5.998;2022-10-04T21:32:48;12.93;;;8.38;;
54384;SDS011;40284;52.878;5.998;2022-10-04T21:35:15;14.13;;;10.43;;
54384;SDS011;40284;52.878;5.998;2022-10-04T21:37:41;14.35;;;7.60;;
54384;SDS011;40284;52.878;5.998;2022-10-04T21:40:07;13.02;;;8.93;;
54384;SDS011;40284;52.878;5.998;2022-10-04T21:42:33;14.27;;;9.15;;
54384;SDS011;40284;52.878;5.998;2022-10-04T21:44:59;12.40;;;9.10;;
54384;SDS011;40284;52.878;5.998;2022-10-04T21:47:25;14.60;;;8.95;;
54384;SDS011;40284;52.878;5.998;2022-10-04T21:49:52;14.77;;;9.23;;
54384;SDS011;40284;52.878;5.998;2022-10-04T21:52:19;13.95;;;8.55;;
54384;SDS011;40284;52.878;5.998;2022-10-04T21:54:45;14.65;;;9.95;;
54384;SDS011;40284;52.878;5.998;2022-10-04T21:57:11;14.57;;;8.57;;
54384;SDS011;40284;52.878;5.998;2022-10-04T21:59:37;12.02;;;8.93;;
54384;SDS011;40284;52.878;5.998;2022-10-04T22:02:03;15.10;;;8.43;;
54384;SDS011;40284;52.878;5.998;2022-10-04T22:04:31;12.82;;;9.90;;
54384;SDS011;40284;52.878;5.998;2022-10-04T22:06:57;10.88;;;8.90;;
54384;SDS011;40284;52.878;5.998;2022-10-04T22:09:23;12.15;;;7.95;;
54384;SDS011;40284;52.878;5.998;2022-10-04T22:11:49;12.27;;;8.50;;
54384;SDS011;40284;52.878;5.998;2022-10-04T22:14:15;13.77;;;8.85;;
54384;SDS011;40284;52.878;5.998;2022-10-04T22:16:42;12.15;;;8.73;;
54384;SDS011;40284;52.878;5.998;2022-10-04T22:19:08;12.05;;;8.50;;
54384;SDS011;40284;52.878;5.998;2022-10-04T22:21:34;9.80;;;7.82;;
54384;SDS011;40284;52.878;5.998;2022-10-04T22:24:02;15.48;;;8.30;;
54384;SDS011;40284;52.878;5.998;2022-10-04T22:26:28;11.38;;;7.45;;
54384;SDS011;40284;52.878;5.998;2022-10-04T22:28:55;9.70;;;8.10;;
54384;SDS011;40284;52.878;5.998;2022-10-04T22:31:24;12.45;;;8.02;;
54384;SDS011;40284;52.878;5.998;2022-10-04T22:33:50;9.63;;;8.57;;
54384;SDS011;40284;52.878;5.998;2022-10-04T22:36:20;11.25;;;8.27;;
54384;SDS011;40284;52.878;5.998;2022-10-04T22:38:47;11.32;;;8.50;;
54384;SDS011;40284;52.878;5.998;2022-10-04T22:41:15;10.38;;;8.88;;
54384;SDS011;40284;52.878;5.998;2022-10-04T22:43:43;13.20;;;8.93;;
54384;SDS011;40284;52.878;5.998;2022-10-04T22:46:12;12.98;;;8.38;;
54384;SDS011;40284;52.878;5.998;2022-10-04T22:48:38;11.80;;;8.77;;
54384;SDS011;40284;52.878;5.998;2022-10-04T22:51:06;12.40;;;8.60;;
54384;SDS011;40284;52.878;5.998;2022-10-04T22:53:33;11.32;;;8.68;;
54384;SDS011;40284;52.878;5.998;2022-10-04T22:55:59;12.95;;;9.70;;
54384;SDS011;40284;52.878;5.998;2022-10-04T22:58:25;13.60;;;8.75;;
54384;SDS011;40284;52.878;5.998;2022-10-04T23:00:51;14.02;;;8.65;;
54384;SDS011;40284;52.878;5.998;2022-10-04T23:03:29;15.35;;;8.80;;
54384;SDS011;40284;52.878;5.998;2022-10-04T23:05:59;9.43;;;7.88;;
54384;SDS011;40284;52.878;5.998;2022-10-04T23:08:26;12.13;;;8.45;;
54384;SDS011;40284;52.878;5.998;2022-10-04T23:10:56;9.82;;;7.38;;
54384;SDS011;40284;52.878;5.998;2022-10-04T23:13:22;12.80;;;8.30;;
54384;SDS011;40284;52.878;5.998;2022-10-04T23:15:49;10.73;;;8.15;;
54384;SDS011;40284;52.878;5.998;2022-10-04T23:18:16;14.75;;;7.80;;
54384;SDS011;40284;52.878;5.998;2022-10-04T23:20:43;12.57;;;8.85;;
54384;SDS011;40284;52.878;5.998;2022-10-04T23:23:12;11.95;;;8.13;;
54384;SDS011;40284;52.878;5.998;2022-10-04T23:25:45;10.07;;;7.85;;
54384;SDS011;40284;52.878;5.998;2022-10-04T23:28:16;11.80;;;7.40;;
54384;SDS011;40284;52.878;5.998;2022-10-04T23:30:42;13.35;;;7.18;;
54384;SDS011;40284;52.878;5.998;2022-10-04T23:33:12;10.82;;;7.35;;
54384;SDS011;40284;52.878;5.998;2022-10-04T23:35:38;11.88;;;7.38;;
54384;SDS011;40284;52.878;5.998;2022-10-04T23:38:07;9.45;;;7.13;;
54384;SDS011;40284;52.878;5.998;2022-10-04T23:40:35;10.73;;;8.13;;
54384;SDS011;40284;52.878;5.998;2022-10-04T23:43:01;11.70;;;7.55;;
54384;SDS011;40284;52.878;5.998;2022-10-04T23:45:28;8.93;;;7.15;;
54384;SDS011;40284;52.878;5.998;2022-10-04T23:47:55;9.95;;;6.68;;
54384;SDS011;40284;52.878;5.998;2022-10-04T23:50:28;12.02;;;6.80;;
54384;SDS011;40284;52.878;5.998;2022-10-04T23:55:23;10.93;;;6.97;;
54384;SDS011;40284;52.878;5.998;2022-10-04T23:57:49;8.55;;;6.63;;
